Time;durP1;ratioP1;P1;durP2;ratioP2;P2;SDS_P1;SDS_P2;PMS_P1;PMS_P2;Temp;Humidity;BMP_temperature;BMP_pressure;BME280_temperature;BME280_humidity;BME280_pressure;Samples;Min_cycle;Max_cycle;Signal;HPM_P1;HPM_P2
2022/08/19 00:01:44;;;;;;;1999.90;999.90;;;;;;;20.20;100.00;97345.25;5039177;28;20049;-78
2022/08/19 00:04:13;;;;;;;1999.90;999.90;;;;;;;20.23;100.00;97363.97;5038981;28;20038;-78
2022/08/19 00:06:40;;;;;;;1999.90;999.90;;;;;;;20.13;100.00;97372.94;5039029;28;20006;-78
2022/08/19 00:09:10;;;;;;;1999.90;999.90;;;;;;;20.12;100.00;97376.06;5038807;28;20021;-76
2022/08/19 00:11:37;;;;;;;1999.90;999.90;;;;;;;20.10;100.00;97381.19;5038950;28;20018;-77
2022/08/19 00:14:03;;;;;;;1999.90;999.90;;;;;;;20.12;100.00;97364.94;5038655;28;20026;-81
2022/08/19 00:16:29;;;;;;;1999.90;999.90;;;;;;;20.07;100.00;97346.66;5038890;28;20022;-79
2022/08/19 00:18:55;;;;;;;1999.90;999.90;;;;;;;20.01;100.00;97331.47;5038870;28;20045;-78
2022/08/19 00:21:21;;;;;;;1999.90;999.90;;;;;;;20.02;100.00;97327.50;5038724;28;20018;-77
2022/08/19 00:23:46;;;;;;;1999.90;999.90;;;;;;;19.93;100.00;97318.63;5038710;28;20021;-77
2022/08/19 00:26:12;;;;;;;1999.90;999.90;;;;;;;20.03;100.00;97331.91;5038612;28;20014;-79
2022/08/19 00:28:38;;;;;;;1999.90;999.90;;;;;;;20.10;100.00;97339.53;5038503;28;20026;-78
2022/08/19 01:45:07;;;;;;;;;;;;;;;20.05;100.00;97265.66;5026544;23;20242;-82
2022/08/19 01:47:37;;;;;;;1999.90;999.90;;;;;;;19.80;100.00;97231.16;5015129;28;19948;-83
2022/08/19 01:50:06;;;;;;;1999.90;999.90;;;;;;;19.69;100.00;97224.66;4997816;28;20070;-85
2022/08/19 01:52:31;;;;;;;1999.90;999.90;;;;;;;19.75;100.00;97220.41;5017234;28;20006;-84
2022/08/19 01:54:57;;;;;;;1999.90;999.90;;;;;;;19.64;100.00;97216.66;5000205;28;20024;-85
2022/08/19 01:57:22;;;;;;;1999.90;999.90;;;;;;;19.63;100.00;97229.72;5015896;28;20612;-84
2022/08/19 01:59:48;;;;;;;1999.90;999.90;;;;;;;19.43;100.00;97213.53;5017062;28;20081;-80
2022/08/19 02:02:13;;;;;;;1999.90;999.90;;;;;;;19.38;100.00;97236.00;5017095;28;20042;-81
2022/08/19 02:04:39;;;;;;;1999.90;999.90;;;;;;;19.40;100.00;97250.31;5016884;28;20022;-83
2022/08/19 02:07:05;;;;;;;1999.90;999.90;;;;;;;19.35;100.00;97281.94;5017285;28;20038;-80
2022/08/19 02:09:32;;;;;;;1999.90;999.90;;;;;;;19.44;100.00;97353.84;5017451;28;20042;-82
2022/08/19 02:11:58;;;;;;;1999.90;999.90;;;;;;;19.57;100.00;97455.19;5001861;28;20026;-81
2022/08/19 02:14:24;;;;;;;1999.90;999.90;;;;;;;19.51;100.00;97570.41;5000538;28;20022;-83
2022/08/19 02:16:51;;;;;;;1999.90;999.90;;;;;;;19.47;100.00;97600.03;4998009;28;20026;-83
2022/08/19 02:19:16;;;;;;;1999.90;999.90;;;;;;;19.69;100.00;97596.56;5015738;28;20030;-81
2022/08/19 02:21:43;;;;;;;1999.90;999.90;;;;;;;19.90;100.00;97591.47;5014685;28;20029;-82
2022/08/19 02:24:09;;;;;;;1999.90;999.90;;;;;;;19.67;100.00;97504.53;4996072;28;20019;-81
2022/08/19 02:26:35;;;;;;;1999.90;999.90;;;;;;;19.48;100.00;97474.84;4994045;28;20033;-80
2022/08/19 02:29:01;;;;;;;1999.90;999.90;;;;;;;19.41;100.00;97446.94;5008580;28;20023;-80
2022/08/19 02:31:27;;;;;;;1999.90;999.90;;;;;;;19.35;100.00;97442.00;4991753;28;20026;-80
2022/08/19 02:33:55;;;;;;;1999.90;999.90;;;;;;;19.50;100.00;97460.56;4994817;28;20026;-80
2022/08/19 02:36:20;;;;;;;1999.90;999.90;;;;;;;19.39;100.00;97440.91;5013340;28;20406;-80
2022/08/19 02:38:46;;;;;;;1999.90;999.90;;;;;;;19.41;100.00;97430.28;5016197;28;20007;-81
2022/08/19 02:41:18;;;;;;;1999.90;999.90;;;;;;;19.34;100.00;97432.06;5008397;28;20035;-81
2022/08/19 02:43:44;;;;;;;1999.90;999.90;;;;;;;19.17;100.00;97442.44;4998113;28;20054;-85
2022/08/19 02:46:22;;;;;;;1999.90;999.90;;;;;;;19.24;100.00;97506.38;5000522;28;20063;-80
2022/08/19 02:48:52;;;;;;;1999.90;999.90;;;;;;;19.05;100.00;97516.63;5000771;28;20026;-81
2022/08/19 02:51:24;;;;;;;1999.90;999.90;;;;;;;-144.65;100.00;64500.88;5000954;28;20029;-82
2022/08/19 02:53:50;;;;;;;1999.90;999.90;;;;;;;-144.65;100.00;64500.88;5001002;28;20018;-84
2022/08/19 02:56:16;;;;;;;1999.90;999.90;;;;;;;-144.65;100.00;64500.88;5000758;28;20026;-84
2022/08/19 02:58:42;;;;;;;1999.90;999.90;;;;;;;-144.65;100.00;64500.88;4983906;28;20011;-81
2022/08/19 03:01:09;;;;;;;1999.90;999.90;;;;;;;-144.65;100.00;64500.88;5000040;28;20027;-82
2022/08/19 03:03:35;;;;;;;1999.90;999.90;;;;;;;-144.65;100.00;64500.88;4979418;28;20005;-81
2022/08/19 03:06:13;;;;;;;1999.90;999.90;;;;;;;-144.65;100.00;64500.88;4980990;28;20058;-82
2022/08/19 03:08:41;;;;;;;1999.90;999.90;;;;;;;-144.65;100.00;64500.88;4983435;28;20023;-84
2022/08/19 03:11:12;;;;;;;1999.90;999.90;;;;;;;-144.65;100.00;64500.88;4983767;28;20015;-85
2022/08/19 03:13:37;;;;;;;1999.90;999.90;;;;;;;-144.65;100.00;64500.88;5000172;28;20137;-84
2022/08/19 03:16:05;;;;;;;1999.90;999.90;;;;;;;-144.65;100.00;64500.88;4997992;28;20042;-81
2022/08/19 03:18:30;;;;;;;1999.90;999.90;;;;;;;-144.65;100.00;64500.88;4998578;28;20018;-83
2022/08/19 03:20:56;;;;;;;1999.90;999.90;;;;;;;-144.65;100.00;64500.88;4997596;28;20016;-81
2022/08/19 03:23:23;;;;;;;1999.90;999.90;;;;;;;-144.65;100.00;64500.88;4999037;28;20086;-81
2022/08/19 03:25:50;;;;;;;1999.90;999.90;;;;;;;-144.65;100.00;64500.88;4999740;28;20039;-84
2022/08/19 03:28:16;;;;;;;1999.90;999.90;;;;;;;-144.65;100.00;64500.88;4999382;28;20074;-85
2022/08/19 03:30:55;;;;;;;1999.90;999.90;;;;;;;-144.65;100.00;64500.88;4999068;28;20042;-83
2022/08/19 03:33:21;;;;;;;1999.90;999.90;;;;;;;-144.65;100.00;64500.88;4999405;28;20179;-82
2022/08/19 03:35:47;;;;;;;1999.90;999.90;;;;;;;-144.65;100.00;64500.88;4999272;28;20026;-81
2022/08/19 03:38:12;;;;;;;1999.90;999.90;;;;;;;-144.65;100.00;64500.88;4982860;28;20106;-83
2022/08/19 03:40:38;;;;;;;1999.90;999.90;;;;;;;-144.65;100.00;64500.88;4999314;28;20086;-82
2022/08/19 03:43:03;;;;;;;1999.90;999.90;;;;;;;-144.65;100.00;64500.88;4999647;28;20034;-82
2022/08/19 03:45:29;;;;;;;1999.90;999.90;;;;;;;-144.65;100.00;64500.88;4983606;28;20039;-84
2022/08/19 03:47:55;;;;;;;1999.90;999.90;;;;;;;-144.65;100.00;64500.88;4999266;28;20022;-85
2022/08/19 03:50:21;;;;;;;1999.90;999.90;;;;;;;-144.65;100.00;64500.88;4999570;28;20011;-81
2022/08/19 03:52:51;;;;;;;1999.90;999.90;;;;;;;-144.65;100.00;64500.88;4982875;28;20031;-83
2022/08/19 03:55:17;;;;;;;1999.90;999.90;;;;;;;-144.65;100.00;64500.88;4982890;28;20014;-84
2022/08/19 03:57:43;;;;;;;1999.90;999.90;;;;;;;-144.65;100.00;64500.88;4999463;28;20014;-84
2022/08/19 04:00:09;;;;;;;1999.90;999.90;;;;;;;-144.65;100.00;64500.88;4999198;28;20007;-85
2022/08/19 04:02:34;;;;;;;1999.90;999.90;;;;;;;-144.65;100.00;64500.88;4999000;28;20010;-84
2022/08/19 04:05:00;;;;;;;1999.90;999.90;;;;;;;-144.65;100.00;64500.88;4998657;28;20018;-85
2022/08/19 04:07:26;;;;;;;1999.90;999.90;;;;;;;-144.65;100.00;64500.88;4998504;28;20066;-85
2022/08/19 04:09:53;;;;;;;1999.90;999.90;;;;;;;-144.65;100.00;64500.88;4998026;28;20052;-84
2022/08/19 04:12:20;;;;;;;1999.90;999.90;;;;;;;-144.65;100.00;64500.88;4998248;28;20013;-86
2022/08/19 04:14:45;;;;;;;1999.90;999.90;;;;;;;-144.65;100.00;64500.88;4982568;28;20022;-84
2022/08/19 04:17:12;;;;;;;1999.90;999.90;;;;;;;-144.65;100.00;64500.88;4981389;28;20071;-82
2022/08/19 04:19:38;;;;;;;1999.90;999.90;;;;;;;-144.65;100.00;64500.88;4998378;28;20034;-83
2022/08/19 04:22:04;;;;;;;1999.90;999.90;;;;;;;-144.65;100.00;64500.88;4998612;28;20045;-83
2022/08/19 04:24:30;;;;;;;1999.90;999.90;;;;;;;-144.65;100.00;64500.88;4981229;28;20074;-82
2022/08/19 04:26:55;;;;;;;1999.90;999.90;;;;;;;-144.65;100.00;64500.88;4996414;28;20070;-83
2022/08/19 04:29:24;;;;;;;1999.90;999.90;;;;;;;-144.65;100.00;64500.88;4980332;28;20011;-84
2022/08/19 04:31:53;;;;;;;1999.90;999.90;;;;;;;-144.65;100.00;64500.88;4980572;28;20103;-84
2022/08/19 04:34:23;;;;;;;1999.90;999.90;;;;;;;-144.65;100.00;64500.88;4996662;28;20034;-85
2022/08/19 04:36:51;;;;;;;1999.90;999.90;;;;;;;-144.65;100.00;64500.88;4997716;28;20010;-85
2022/08/19 04:39:20;;;;;;;1999.90;999.90;;;;;;;-144.65;100.00;64500.88;4998045;28;20038;-82
2022/08/19 04:44:44;;;;;;;1999.90;999.90;;;;;;;-144.65;100.00;64500.88;4966640;28;20526;-81
2022/08/19 04:47:09;;;;;;;1999.90;999.90;;;;;;;-144.65;100.00;64500.88;5010130;28;20049;-81
2022/08/19 04:49:35;;;;;;;1999.90;999.90;;;;;;;-144.65;100.00;64500.88;5017796;28;20022;-80
2022/08/19 04:52:00;;;;;;;1999.90;999.90;;;;;;;-144.65;100.00;64500.88;5017826;28;20045;-79
2022/08/19 04:54:25;;;;;;;1999.90;999.90;;;;;;;-144.65;100.00;64500.88;4997518;28;20034;-78
2022/08/19 04:56:52;;;;;;;1999.90;999.90;;;;;;;-144.65;100.00;64500.88;5003864;28;20030;-77
2022/08/19 04:59:19;;;;;;;1999.90;999.90;;;;;;;-144.65;100.00;64500.88;4999333;28;20042;-78
2022/08/19 05:01:49;;;;;;;1999.90;999.90;;;;;;;-144.65;100.00;64500.88;4981881;28;20033;-78
2022/08/19 05:04:18;;;;;;;1999.90;999.90;;;;;;;-144.65;100.00;64500.88;5002685;28;20090;-80
2022/08/19 05:06:46;;;;;;;1999.90;999.90;;;;;;;-144.65;100.00;64500.88;4989375;28;20498;-78
2022/08/19 05:09:12;;;;;;;1999.90;999.90;;;;;;;-144.65;100.00;64500.88;5007320;28;20030;-80
2022/08/19 05:11:38;;;;;;;1999.90;999.90;;;;;;;-144.65;100.00;64500.88;4989800;28;20493;-74
2022/08/19 05:14:04;;;;;;;1999.90;999.90;;;;;;;-144.65;100.00;64500.88;4977939;28;20037;-73
2022/08/19 05:16:30;;;;;;;1999.90;999.90;;;;;;;-144.65;100.00;64500.88;4977828;28;20027;-72
2022/08/19 05:24:26;;;;;;;1999.90;999.90;;;;;;;-144.65;100.00;64500.88;4973514;28;20059;-74
2022/08/19 05:26:56;;;;;;;1999.90;999.90;;;;;;;-144.65;100.00;64500.88;4971993;28;20118;-74
2022/08/19 05:29:23;;;;;;;1999.90;999.90;;;;;;;-144.65;100.00;64500.88;4990020;28;20038;-73
2022/08/19 05:31:49;;;;;;;1999.90;999.90;;;;;;;-144.65;100.00;64500.88;4991106;28;20042;-73
2022/08/19 05:34:17;;;;;;;1999.90;999.90;;;;;;;-144.65;100.00;64500.88;4991189;28;20105;-74
2022/08/19 05:36:47;;;;;;;1999.90;999.90;;;;;;;-144.65;100.00;64500.88;4991065;28;20030;-74
2022/08/19 05:39:16;;;;;;;1999.90;999.90;;;;;;;-144.65;100.00;64500.88;4991253;28;20088;-73
2022/08/19 05:41:47;;;;;;;1999.90;999.90;;;;;;;-144.65;100.00;64500.88;4990695;28;20034;-73
2022/08/19 05:44:14;;;;;;;1999.90;999.90;;;;;;;-144.65;100.00;64500.88;4983366;28;20051;-72
2022/08/19 05:46:42;;;;;;;1999.90;999.90;;;;;;;-144.65;100.00;64500.88;4986666;28;20032;-73
2022/08/19 05:49:08;;;;;;;1999.90;999.90;;;;;;;-144.65;100.00;64500.88;4995056;28;20042;-74
2022/08/19 05:51:35;;;;;;;1999.90;999.90;;;;;;;-144.65;100.00;64500.88;4978903;28;20106;-73
2022/08/19 05:54:02;;;;;;;1999.90;999.90;;;;;;;-144.65;100.00;64500.88;4975816;28;20035;-73
2022/08/19 05:56:27;;;;;;;1999.90;999.90;;;;;;;-144.65;100.00;64500.88;4973592;28;20026;-73
2022/08/19 05:58:53;;;;;;;1999.90;999.90;;;;;;;-144.65;100.00;64500.88;4994157;28;20399;-73
2022/08/19 06:01:19;;;;;;;1999.90;999.90;;;;;;;-144.65;100.00;64500.88;4991882;28;20030;-72
2022/08/19 06:03:45;;;;;;;1999.90;999.90;;;;;;;-144.65;100.00;64500.88;4994479;28;20447;-73
2022/08/19 06:06:13;;;;;;;1999.90;999.90;;;;;;;-144.65;100.00;64500.88;4989908;28;20512;-72
2022/08/19 06:08:39;;;;;;;1999.90;999.90;;;;;;;-144.65;100.00;64500.88;4975177;28;20133;-73
2022/08/19 06:11:17;;;;;;;1999.90;999.90;;;;;;;-144.65;100.00;64500.88;4983162;28;20038;-74
2022/08/19 06:13:43;;;;;;;1999.90;999.90;;;;;;;-144.65;100.00;64500.88;4994574;28;20117;-73
2022/08/19 06:16:08;;;;;;;1999.90;999.90;;;;;;;-144.65;100.00;64500.88;4997205;28;20026;-76
2022/08/19 06:18:34;;;;;;;1999.90;999.90;;;;;;;-144.65;100.00;64500.88;4994506;28;20081;-73
2022/08/19 06:21:00;;;;;;;1999.90;999.90;;;;;;;-144.65;100.00;64500.88;4990256;28;20493;-73
2022/08/19 06:23:25;;;;;;;1999.90;999.90;;;;;;;-144.65;100.00;64500.88;4956065;28;20030;-73
2022/08/19 06:25:50;;;;;;;1999.90;999.90;;;;;;;-144.65;100.00;64500.88;4974798;28;20065;-73
2022/08/19 06:28:16;;;;;;;1999.90;999.90;;;;;;;-144.65;100.00;64500.88;4974678;28;20027;-72
2022/08/19 06:30:41;;;;;;;1999.90;999.90;;;;;;;-144.65;100.00;64500.88;4974723;28;20023;-72
2022/08/19 06:33:07;;;;;;;1999.90;999.90;;;;;;;-144.65;100.00;64500.88;4974542;28;20101;-73
2022/08/19 06:35:32;;;;;;;1999.90;999.90;;;;;;;-144.65;100.00;64500.88;4974752;28;20368;-73
2022/08/19 06:37:57;;;;;;;1999.90;999.90;;;;;;;-144.65;100.00;64500.88;4957339;28;20030;-72
2022/08/19 06:40:23;;;;;;;1999.90;999.90;;;;;;;-144.65;100.00;64500.88;4957252;28;20058;-73
2022/08/19 06:42:48;;;;;;;1999.90;999.90;;;;;;;-144.65;100.00;64500.88;4974528;28;20045;-73
2022/08/19 06:45:14;;;;;;;1999.90;999.90;;;;;;;-144.65;100.00;64500.88;4974884;28;20023;-73
2022/08/19 06:47:39;;;;;;;1999.90;999.90;;;;;;;-144.65;100.00;64500.88;4974315;28;20483;-73
2022/08/19 06:50:06;;;;;;;1999.90;999.90;;;;;;;-144.65;100.00;64500.88;4974187;28;20050;-73
2022/08/19 06:52:33;;;;;;;1999.90;999.90;;;;;;;-144.65;100.00;64500.88;4975700;28;20026;-73
2022/08/19 06:54:59;;;;;;;1999.90;999.90;;;;;;;-144.65;100.00;64500.88;4976091;28;20487;-73
2022/08/19 06:57:26;;;;;;;1999.90;999.90;;;;;;;-144.65;100.00;64500.88;4976320;28;20034;-73
2022/08/19 06:59:51;;;;;;;1999.90;999.90;;;;;;;-144.65;100.00;64500.88;4974556;28;20101;-72
2022/08/19 07:02:17;;;;;;;1999.90;999.90;;;;;;;-144.65;100.00;64500.88;4974250;28;20483;-72
2022/08/19 07:04:43;;;;;;;1999.90;999.90;;;;;;;-144.65;100.00;64500.88;4974230;28;20415;-72
2022/08/19 07:07:12;;;;;;;1999.90;999.90;;;;;;;-144.65;100.00;64500.88;4974606;28;20655;-74
2022/08/19 07:09:39;;;;;;;1999.90;999.90;;;;;;;-144.65;100.00;64500.88;4977802;28;20535;-74
2022/08/19 07:12:07;;;;;;;1999.90;999.90;;;;;;;-144.65;100.00;64500.88;4978337;28;20092;-72
2022/08/19 07:14:36;;;;;;;1999.90;999.90;;;;;;;-144.65;100.00;64500.88;4973999;28;20034;-72
2022/08/19 07:17:03;;;;;;;1999.90;999.90;;;;;;;-144.65;100.00;64500.88;4974154;28;20404;-73
2022/08/19 07:19:29;;;;;;;1999.90;999.90;;;;;;;-144.65;100.00;64500.88;4956399;28;20105;-72
2022/08/19 07:21:55;;;;;;;1999.90;999.90;;;;;;;-144.65;100.00;64500.88;4973601;28;20035;-72
2022/08/19 07:24:24;;;;;;;1999.90;999.90;;;;;;;-144.65;100.00;64500.88;4977182;28;20117;-73
2022/08/19 07:26:50;;;;;;;1999.90;999.90;;;;;;;-144.65;100.00;64500.88;4980388;28;20118;-74
2022/08/19 07:29:17;;;;;;;1999.90;999.90;;;;;;;-144.65;100.00;64500.88;4973135;28;20077;-74
2022/08/19 07:31:42;;;;;;;1999.90;999.90;;;;;;;-144.65;100.00;64500.88;4992258;28;20045;-73
2022/08/19 07:34:11;;;;;;;1999.90;999.90;;;;;;;-144.65;100.00;64500.88;4992689;28;20475;-74
2022/08/19 07:36:40;;;;;;;1999.90;999.90;;;;;;;-144.65;100.00;64500.88;4992479;28;20037;-72
2022/08/19 07:39:13;;;;;;;1999.90;999.90;;;;;;;-144.65;100.00;64500.88;4992575;28;20026;-75
2022/08/19 07:41:39;;;;;;;1999.90;999.90;;;;;;;-144.65;100.00;64500.88;4991648;28;20022;-78
2022/08/19 07:44:07;;;;;;;1999.90;999.90;;;;;;;-144.65;100.00;64500.88;4974261;28;20046;-75
2022/08/19 07:46:34;;;;;;;1999.90;999.90;;;;;;;-144.65;100.00;64500.88;4989660;28;20498;-72
2022/08/19 07:49:03;;;;;;;1999.90;999.90;;;;;;;-144.65;100.00;64500.88;4987057;28;20041;-74
2022/08/19 07:51:29;;;;;;;1999.90;999.90;;;;;;;-144.65;100.00;64500.88;4990952;28;20102;-74
2022/08/19 07:53:54;;;;;;;1999.90;999.90;;;;;;;-144.65;100.00;64500.88;4991608;28;20102;-75
2022/08/19 07:56:21;;;;;;;1999.90;999.90;;;;;;;-144.65;100.00;64500.88;4991226;28;20041;-77
2022/08/19 07:58:49;;;;;;;1999.90;999.90;;;;;;;-144.65;100.00;64500.88;4991728;28;20096;-76
2022/08/19 08:01:20;;;;;;;1999.90;999.90;;;;;;;-144.65;100.00;64500.88;4991026;28;20034;-76
2022/08/19 08:09:21;;;;;;;1999.90;999.90;;;;;;;-144.65;100.00;64500.88;4990511;28;20092;-72
2022/08/19 08:11:56;;;;;;;1999.90;999.90;;;;;;;-144.65;100.00;64500.88;4989608;28;20117;-73
2022/08/19 08:14:34;;;;;;;1999.90;999.90;;;;;;;-144.65;100.00;64500.88;4986960;28;20041;-73
2022/08/19 08:17:00;;;;;;;1999.90;999.90;;;;;;;-144.65;100.00;64500.88;4983173;28;20034;-74
2022/08/19 08:19:27;;;;;;;1999.90;999.90;;;;;;;-144.65;100.00;64500.88;4971269;28;20372;-73
2022/08/19 08:21:55;;;;;;;1999.90;999.90;;;;;;;-144.65;100.00;64500.88;4990354;28;20049;-73
2022/08/19 08:24:20;;;;;;;1999.90;999.90;;;;;;;-144.65;100.00;64500.88;4989001;28;20027;-71
2022/08/19 08:26:46;;;;;;;1999.90;999.90;;;;;;;-144.65;100.00;64500.88;4989218;28;20026;-73
2022/08/19 08:29:12;;;;;;;1999.90;999.90;;;;;;;-144.65;100.00;64500.88;4972846;28;20022;-72
2022/08/19 08:31:42;;;;;;;1999.90;999.90;;;;;;;-144.65;100.00;64500.88;4989381;28;20471;-72
2022/08/19 08:34:07;;;;;;;1999.90;999.90;;;;;;;-144.65;100.00;64500.88;4988887;28;20034;-72
2022/08/19 08:36:41;;;;;;;1999.90;999.90;;;;;;;-144.65;100.00;64500.88;4988765;28;20026;-73
2022/08/19 08:39:07;;;;;;;1999.90;999.90;;;;;;;-144.65;100.00;64500.88;4986174;28;20026;-73
2022/08/19 08:42:13;;;;;;;1999.90;999.90;;;;;;;-144.65;100.00;64500.88;4989079;28;20022;-73
2022/08/19 08:44:59;;;;;;;1999.90;999.90;;;;;;;-144.65;100.00;64500.88;4909437;29;20052;-72
2022/08/19 08:47:25;;;;;;;;;;;;;;;-144.65;100.00;64500.88;4986347;28;20046;-71
2022/08/19 08:49:59;;;;;;;1999.90;999.90;;;;;;;-144.65;100.00;64500.88;4986789;28;19925;-72
2022/08/19 08:52:28;;;;;;;1999.90;999.90;;;;;;;-144.65;100.00;64500.88;4989524;28;20479;-72
2022/08/19 08:54:57;;;;;;;1999.90;999.90;;;;;;;-144.65;100.00;64500.88;4976540;28;20037;-73
2022/08/19 08:57:28;;;;;;;1999.90;999.90;;;;;;;-144.65;100.00;64500.88;4986279;28;20030;-72
2022/08/19 08:59:56;;;;;;;1999.90;999.90;;;;;;;-144.65;100.00;64500.88;4970423;28;20034;-73
2022/08/19 09:02:21;;;;;;;1999.90;999.90;;;;;;;-144.65;100.00;64500.88;4984312;28;20033;-72
2022/08/19 09:04:47;;;;;;;1999.90;999.90;;;;;;;-144.65;100.00;64500.88;4988659;28;20022;-72
2022/08/19 09:07:31;;;;;;;1999.90;999.90;;;;;;;-144.65;100.00;64500.88;4989189;28;20021;-73
2022/08/19 09:10:06;;;;;;;1999.90;999.90;;;;;;;-144.65;100.00;64500.88;4969648;28;20041;-71
2022/08/19 09:12:45;;;;;;;1999.90;999.90;;;;;;;-144.65;100.00;64500.88;4989400;28;20045;-72
2022/08/19 09:15:14;;;;;;;1999.90;999.90;;;;;;;-144.65;100.00;64500.88;4971913;28;20057;-73
2022/08/19 09:17:39;;;;;;;1999.90;999.90;;;;;;;-144.65;100.00;64500.88;4981711;28;20034;-73
2022/08/19 09:20:22;;;;;;;1999.90;999.90;;;;;;;-144.65;100.00;64500.88;4988156;28;20442;-74
2022/08/19 09:22:49;;;;;;;1999.90;999.90;;;;;;;-144.65;100.00;64500.88;4987692;28;20041;-72
2022/08/19 09:25:18;;;;;;;1999.90;999.90;;;;;;;-144.65;100.00;64500.88;4994185;28;20498;-73
2022/08/19 09:27:44;;;;;;;1999.90;999.90;;;;;;;-144.65;100.00;64500.88;4991738;28;20029;-72
2022/08/19 09:30:23;;;;;;;1999.90;999.90;;;;;;;-144.65;100.00;64500.88;4992247;28;20034;-72
2022/08/19 09:32:49;;;;;;;1999.90;999.90;;;;;;;-144.65;100.00;64500.88;4992551;28;20479;-73
2022/08/19 09:35:15;;;;;;;1999.90;999.90;;;;;;;-144.65;100.00;64500.88;4993897;28;20089;-72
2022/08/19 09:37:42;;;;;;;1999.90;999.90;;;;;;;-144.65;100.00;64500.88;4991813;28;20029;-72
2022/08/19 09:40:08;;;;;;;1999.90;999.90;;;;;;;-144.65;100.00;64500.88;4993153;28;20030;-72
2022/08/19 09:42:33;;;;;;;1999.90;999.90;;;;;;;-144.65;100.00;64500.88;4991320;28;20027;-72
2022/08/19 09:44:59;;;;;;;1999.90;999.90;;;;;;;-144.65;100.00;64500.88;4991008;28;20039;-72
2022/08/19 09:47:25;;;;;;;1999.90;999.90;;;;;;;-144.65;100.00;64500.88;4991476;28;20054;-72
2022/08/19 09:49:50;;;;;;;1999.90;999.90;;;;;;;-144.65;100.00;64500.88;4991277;28;20077;-73
2022/08/19 09:52:16;;;;;;;1999.90;999.90;;;;;;;-144.65;100.00;64500.88;4989470;28;20086;-72
2022/08/19 09:54:41;;;;;;;1999.90;999.90;;;;;;;-144.65;100.00;64500.88;4987249;28;20108;-72
2022/08/19 09:57:07;;;;;;;1999.90;999.90;;;;;;;-144.65;100.00;64500.88;4991909;28;20469;-72
2022/08/19 09:59:34;;;;;;;1999.90;999.90;;;;;;;-144.65;100.00;64500.88;4986720;28;20726;-71
2022/08/19 10:01:59;;;;;;;1999.90;999.90;;;;;;;-144.65;100.00;64500.88;4992029;28;20076;-71
2022/08/19 10:05:47;;;;;;;1999.90;999.90;;;;;;;-144.65;100.00;64500.88;4993829;28;20397;-72
2022/08/19 10:07:10;;;;;;;;;;;;;;;-144.65;100.00;64500.88;4986013;28;20054;-71
2022/08/19 10:09:36;;;;;;;1999.90;999.90;;;;;;;-144.65;100.00;64500.88;4990064;28;19932;-72
2022/08/19 10:12:03;;;;;;;1999.90;999.90;;;;;;;-144.65;100.00;64500.88;4988210;28;20111;-71
2022/08/19 10:14:29;;;;;;;1999.90;999.90;;;;;;;-144.65;100.00;64500.88;4990882;28;20026;-71
2022/08/19 10:16:54;;;;;;;1999.90;999.90;;;;;;;-144.65;100.00;64500.88;4991073;28;20022;-71
2022/08/19 10:19:22;;;;;;;1999.90;999.90;;;;;;;-144.65;100.00;64500.88;4989016;28;20430;-72
2022/08/19 10:21:48;;;;;;;1999.90;999.90;;;;;;;-144.65;100.00;64500.88;4991325;28;20495;-73
2022/08/19 10:24:14;;;;;;;1999.90;999.90;;;;;;;-144.65;100.00;64500.88;4997177;28;20036;-76
2022/08/19 10:26:44;;;;;;;1999.90;999.90;;;;;;;-144.65;100.00;64500.88;4991844;28;20035;-73
2022/08/19 10:29:11;;;;;;;1999.90;999.90;;;;;;;-144.65;100.00;64500.88;4999561;28;20036;-73
2022/08/19 10:31:37;;;;;;;1999.90;999.90;;;;;;;-144.65;100.00;64500.88;5006011;28;20029;-78
2022/08/19 10:34:02;;;;;;;1999.90;999.90;;;;;;;-144.65;100.00;64500.88;5011691;28;20037;-78
2022/08/19 10:36:35;;;;;;;1999.90;999.90;;;;;;;-144.65;100.00;64500.88;5011872;28;20121;-77
2022/08/19 10:39:04;;;;;;;1999.90;999.90;;;;;;;-144.65;100.00;64500.88;5000813;28;20139;-80
2022/08/19 10:41:32;;;;;;;1999.90;999.90;;;;;;;-144.65;100.00;64500.88;5005535;28;20117;-81
2022/08/19 10:44:01;;;;;;;1999.90;999.90;;;;;;;-144.65;100.00;64500.88;4992078;28;20056;-85
2022/08/19 10:46:29;;;;;;;1999.90;999.90;;;;;;;-144.65;100.00;64500.88;5011440;28;20033;-79
2022/08/19 10:48:54;;;;;;;1999.90;999.90;;;;;;;-144.65;100.00;64500.88;5011376;28;20026;-77
2022/08/19 10:54:05;;;;;;;1999.90;999.90;;;;;;;-144.65;100.00;64500.88;5011581;28;20485;-77
2022/08/19 10:59:16;;;;;;;;;;;;;;;-144.65;100.00;64500.88;5010220;28;20161;-77
2022/08/19 11:01:44;;;;;;;1999.90;999.90;;;;;;;-144.65;100.00;64500.88;5007255;28;20411;-77
2022/08/19 11:04:10;;;;;;;1999.90;999.90;;;;;;;-144.65;100.00;64500.88;5016138;28;20022;-82
2022/08/19 11:06:38;;;;;;;1999.90;999.90;;;;;;;-144.65;100.00;64500.88;4989921;28;20061;-80
2022/08/19 11:09:05;;;;;;;1999.90;999.90;;;;;;;-144.65;100.00;64500.88;4993031;28;20121;-75
2022/08/19 11:11:32;;;;;;;1999.90;999.90;;;;;;;-144.65;100.00;64500.88;5003685;28;20731;-77
2022/08/19 11:13:58;;;;;;;1999.90;999.90;;;;;;;-144.65;100.00;64500.88;5003987;28;20033;-74
2022/08/19 11:16:26;;;;;;;1999.90;999.90;;;;;;;-144.65;100.00;64500.88;4986895;28;20026;-73
2022/08/19 11:18:54;;;;;;;1999.90;999.90;;;;;;;-144.65;100.00;64500.88;5001578;28;20025;-74
2022/08/19 11:21:24;;;;;;;1999.90;999.90;;;;;;;-144.65;100.00;64500.88;4988497;28;20113;-74
2022/08/19 11:23:52;;;;;;;1999.90;999.90;;;;;;;-144.65;100.00;64500.88;5007199;28;20433;-76
2022/08/19 11:26:19;;;;;;;1999.90;999.90;;;;;;;-144.65;100.00;64500.88;5008758;28;20026;-76
2022/08/19 11:28:46;;;;;;;1999.90;999.90;;;;;;;-144.65;100.00;64500.88;5008275;28;20034;-77
2022/08/19 11:31:15;;;;;;;1999.90;999.90;;;;;;;-144.65;100.00;64500.88;5006307;28;20022;-74
2022/08/19 11:33:41;;;;;;;1999.90;999.90;;;;;;;-144.65;100.00;64500.88;5000230;28;20037;-75
2022/08/19 11:36:07;;;;;;;1999.90;999.90;;;;;;;-144.65;100.00;64500.88;5001782;28;20034;-75
2022/08/19 11:38:33;;;;;;;1999.90;999.90;;;;;;;-144.65;100.00;64500.88;5004272;28;20057;-75
2022/08/19 11:41:01;;;;;;;1999.90;999.90;;;;;;;-144.65;100.00;64500.88;5003182;28;20032;-76
2022/08/19 11:43:28;;;;;;;1999.90;999.90;;;;;;;-144.65;100.00;64500.88;5005338;28;20056;-77
2022/08/19 11:45:55;;;;;;;1999.90;999.90;;;;;;;-144.65;100.00;64500.88;5004983;28;20061;-77
2022/08/19 11:48:23;;;;;;;1999.90;999.90;;;;;;;-144.65;100.00;64500.88;4994378;28;20065;-75
2022/08/19 11:50:49;;;;;;;1999.90;999.90;;;;;;;-144.65;100.00;64500.88;4992476;28;20026;-79
2022/08/19 11:53:17;;;;;;;1999.90;999.90;;;;;;;-144.65;100.00;64500.88;5000000;28;20038;-76
2022/08/19 11:55:44;;;;;;;1999.90;999.90;;;;;;;-144.65;100.00;64500.88;4997373;28;20502;-73
2022/08/19 11:58:10;;;;;;;1999.90;999.90;;;;;;;-144.65;100.00;64500.88;4996990;28;20030;-72
2022/08/19 12:00:36;;;;;;;1999.90;999.90;;;;;;;-144.65;100.00;64500.88;4999723;28;20038;-72
2022/08/19 12:03:02;;;;;;;1999.90;999.90;;;;;;;-144.65;100.00;64500.88;5001026;28;20030;-72
2022/08/19 12:05:27;;;;;;;1999.90;999.90;;;;;;;-144.65;100.00;64500.88;4999339;28;20026;-74
2022/08/19 12:07:54;;;;;;;1999.90;999.90;;;;;;;-144.65;100.00;64500.88;4987259;28;20485;-74
2022/08/19 12:10:19;;;;;;;1999.90;999.90;;;;;;;-144.65;100.00;64500.88;5000413;28;20034;-72
2022/08/19 12:12:46;;;;;;;1999.90;999.90;;;;;;;-144.65;100.00;64500.88;5000307;28;20045;-74